createdAt,value
2019-03-21T00:01:17.520Z,99.90
2019-03-21T00:03:47.107Z,99.90
2019-03-21T00:06:36.423Z,99.90
2019-03-21T00:09:07.360Z,99.90
2019-03-21T00:11:55.483Z,99.90
2019-03-21T00:14:32.727Z,99.90
2019-03-21T00:17:02.412Z,99.90
2019-03-21T00:19:30.844Z,99.90
2019-03-21T00:21:59.311Z,99.90
2019-03-21T00:24:28.038Z,99.90
2019-03-21T00:26:56.480Z,99.90
2019-03-21T00:29:24.927Z,99.90
2019-03-21T00:31:53.382Z,99.90
2019-03-21T00:34:21.823Z,99.90
2019-03-21T00:36:50.304Z,99.90
2019-03-21T00:39:18.728Z,99.90
2019-03-21T00:41:47.176Z,99.90
2019-03-21T00:44:18.513Z,99.90
2019-03-21T00:46:45.807Z,99.90
2019-03-21T00:49:14.231Z,99.90
2019-03-21T00:51:42.704Z,99.90
2019-03-21T00:54:11.138Z,99.90
2019-03-21T00:56:39.606Z,99.90
2019-03-21T00:59:08.059Z,99.90
2019-03-21T01:01:36.495Z,99.90
2019-03-21T01:04:05.104Z,99.90
2019-03-21T01:06:34.027Z,99.90
2019-03-21T01:09:02.532Z,99.90
2019-03-21T01:11:30.984Z,99.90
2019-03-21T01:13:59.448Z,99.90
2019-03-21T01:16:27.899Z,99.90
2019-03-21T01:18:56.376Z,99.90
2019-03-21T01:21:24.811Z,99.90
2019-03-21T01:23:53.265Z,99.90
2019-03-21T01:26:21.697Z,99.90
2019-03-21T01:28:50.163Z,99.90
2019-03-21T01:31:18.590Z,99.90
2019-03-21T01:33:47.125Z,99.90
2019-03-21T01:36:15.556Z,99.90
2019-03-21T01:38:44.081Z,99.90
2019-03-21T01:41:15.189Z,99.90
2019-03-21T01:43:43.701Z,99.90
2019-03-21T01:46:17.686Z,99.90
2019-03-21T01:48:46.320Z,99.90
2019-03-21T01:51:14.839Z,99.90
2019-03-21T01:53:43.296Z,99.90
2019-03-21T01:56:11.738Z,99.90
2019-03-21T01:58:40.168Z,99.90
2019-03-21T02:01:08.993Z,99.90
2019-03-21T02:03:37.549Z,99.90
2019-03-21T02:06:06.066Z,99.90
2019-03-21T02:08:35.593Z,99.90
2019-03-21T02:11:04.275Z,99.90
2019-03-21T02:13:32.727Z,99.90
2019-03-21T02:16:01.184Z,99.90
2019-03-21T02:18:29.617Z,99.90
2019-03-21T02:20:58.069Z,99.90
2019-03-21T02:23:26.502Z,99.90
2019-03-21T02:25:54.955Z,99.90
2019-03-21T02:28:23.389Z,99.90
2019-03-21T02:30:54.940Z,99.90
2019-03-21T02:33:34.863Z,99.90
2019-03-21T02:36:06.889Z,99.90
2019-03-21T02:38:35.330Z,99.90
2019-03-21T02:41:10.124Z,99.90
2019-03-21T02:43:38.900Z,99.90
2019-03-21T02:46:07.365Z,99.90
2019-03-21T02:48:35.834Z,99.90
2019-03-21T02:51:05.172Z,99.90
2019-03-21T02:53:34.337Z,99.90
2019-03-21T02:56:03.840Z,99.90
2019-03-21T02:58:32.270Z,99.90
2019-03-21T03:01:00.720Z,99.90
2019-03-21T03:03:29.170Z,99.90
2019-03-21T03:05:57.618Z,99.90
2019-03-21T03:08:26.176Z,99.90
2019-03-21T03:10:56.440Z,99.90
2019-03-21T03:13:25.260Z,99.90
2019-03-21T03:15:53.787Z,99.90
2019-03-21T03:18:25.763Z,99.90
2019-03-21T03:20:54.239Z,99.90
2019-03-21T03:23:22.744Z,99.90
2019-03-21T03:25:51.666Z,99.90
2019-03-21T03:28:38.249Z,99.90
2019-03-21T03:31:06.724Z,99.90
2019-03-21T03:33:35.192Z,99.90
2019-03-21T03:36:04.506Z,99.90
2019-03-21T03:38:33.050Z,99.90
2019-03-21T03:41:10.628Z,99.90
2019-03-21T03:43:39.078Z,99.90
2019-03-21T03:46:07.514Z,99.90
2019-03-21T03:48:35.974Z,99.90
2019-03-21T03:51:04.401Z,99.90
2019-03-21T03:53:32.852Z,99.90
2019-03-21T03:56:01.320Z,99.90
2019-03-21T03:58:32.360Z,99.90
2019-03-21T04:01:01.081Z,99.90
2019-03-21T04:03:29.532Z,99.90
2019-03-21T04:05:58.000Z,99.90
2019-03-21T04:08:26.439Z,99.90
2019-03-21T04:10:56.848Z,99.90
2019-03-21T04:13:25.294Z,99.90
2019-03-21T04:15:54.240Z,99.90
2019-03-21T04:18:24.720Z,99.90
2019-03-21T04:20:58.971Z,99.90
2019-03-21T04:23:27.444Z,99.90
2019-03-21T04:25:59.094Z,99.90
2019-03-21T04:28:27.558Z,99.90
2019-03-21T04:30:56.005Z,99.90
2019-03-21T04:33:24.700Z,99.90
2019-03-21T04:35:53.146Z,99.90
2019-03-21T04:38:21.862Z,99.90
2019-03-21T04:40:50.321Z,99.90
2019-03-21T04:43:18.781Z,99.90
2019-03-21T04:45:47.419Z,99.90
2019-03-21T04:48:15.832Z,99.90
2019-03-21T04:50:44.295Z,99.90
2019-03-21T04:53:12.751Z,99.90
2019-03-21T04:55:41.548Z,99.90
2019-03-21T04:58:10.010Z,99.90
2019-03-21T05:00:47.709Z,99.90
2019-03-21T05:03:21.417Z,99.90
2019-03-21T05:05:49.845Z,99.90
2019-03-21T05:08:18.307Z,99.90
2019-03-21T05:10:46.751Z,99.90
2019-03-21T05:13:15.207Z,99.90
2019-03-21T05:15:48.554Z,99.90
2019-03-21T05:18:26.048Z,99.90
2019-03-21T05:20:54.497Z,99.90
2019-03-21T05:23:22.940Z,99.90
2019-03-21T05:25:51.376Z,99.90
2019-03-21T05:28:19.824Z,99.90
2019-03-21T05:30:57.809Z,99.90
2019-03-21T05:33:26.268Z,99.90
2019-03-21T05:35:54.707Z,99.90
2019-03-21T05:38:25.704Z,99.90
2019-03-21T05:40:54.147Z,99.90
2019-03-21T05:43:31.452Z,99.90
2019-03-21T05:45:59.899Z,99.90
2019-03-21T05:48:28.352Z,99.90
2019-03-21T05:50:56.786Z,99.90
2019-03-21T05:53:25.262Z,99.90
2019-03-21T05:55:53.723Z,99.90
2019-03-21T05:58:22.192Z,99.90
2019-03-21T06:00:53.818Z,99.90
2019-03-21T06:03:25.826Z,99.90
2019-03-21T06:05:57.329Z,99.90
2019-03-21T06:08:28.969Z,99.90
2019-03-21T06:10:57.431Z,99.90
2019-03-21T06:13:25.925Z,99.90
2019-03-21T06:15:54.419Z,99.90
2019-03-21T06:18:41.003Z,99.90
2019-03-21T06:21:12.501Z,99.90
2019-03-21T06:23:55.575Z,99.90
2019-03-21T06:26:30.008Z,99.90
2019-03-21T06:28:58.432Z,99.90
2019-03-21T06:31:26.894Z,99.90
2019-03-21T06:33:55.364Z,99.90
2019-03-21T06:36:23.827Z,99.90
2019-03-21T06:38:52.271Z,99.90
2019-03-21T06:41:20.731Z,99.90
2019-03-21T06:43:49.170Z,99.90
2019-03-21T06:46:17.631Z,99.90
2019-03-21T06:48:46.056Z,99.90
2019-03-21T06:51:14.519Z,99.90
2019-03-21T06:53:42.949Z,99.90
2019-03-21T06:56:11.488Z,99.90
2019-03-21T06:58:39.964Z,99.90
2019-03-21T07:01:08.413Z,99.90
2019-03-21T07:03:36.988Z,99.90
2019-03-21T07:06:05.483Z,99.90
2019-03-21T07:08:34.836Z,99.90
2019-03-21T07:11:04.866Z,99.90
2019-03-21T07:13:33.312Z,99.90
2019-03-21T07:16:01.760Z,99.90
2019-03-21T07:18:30.188Z,99.90
2019-03-21T07:21:00.993Z,99.90
2019-03-21T07:23:28.807Z,99.90
2019-03-21T07:25:57.268Z,99.90
2019-03-21T07:28:25.694Z,99.90
2019-03-21T07:30:54.156Z,99.90
2019-03-21T07:33:22.595Z,99.90
2019-03-21T07:35:51.040Z,99.90
2019-03-21T07:38:19.500Z,99.90
2019-03-21T07:40:47.945Z,99.90
2019-03-21T07:43:16.386Z,99.90
2019-03-21T07:45:44.869Z,99.90
2019-03-21T07:48:13.304Z,99.90
2019-03-21T07:50:41.753Z,99.90
2019-03-21T07:53:10.220Z,99.90
2019-03-21T07:55:38.687Z,99.90
2019-03-21T07:58:07.123Z,99.90
2019-03-21T08:00:35.558Z,99.90
2019-03-21T08:03:04.930Z,99.90
2019-03-21T08:05:40.210Z,99.90
2019-03-21T08:08:03.553Z,99.90
2019-03-21T08:10:31.982Z,99.90
2019-03-21T08:13:00.451Z,99.90
2019-03-21T08:15:28.876Z,99.90
2019-03-21T08:17:57.333Z,99.90
2019-03-21T08:20:25.787Z,99.90
2019-03-21T08:22:54.308Z,99.90
2019-03-21T08:25:22.756Z,99.90
2019-03-21T08:27:51.951Z,99.90
2019-03-21T08:30:29.226Z,99.90
2019-03-21T08:32:57.707Z,99.90
2019-03-21T08:35:26.147Z,99.90
2019-03-21T08:37:54.615Z,99.90
2019-03-21T08:40:23.078Z,99.90
2019-03-21T08:42:51.525Z,99.90
2019-03-21T08:45:19.985Z,99.90
2019-03-21T08:47:48.695Z,99.90
2019-03-21T08:50:17.142Z,99.90
2019-03-21T08:52:45.587Z,99.90
2019-03-21T08:55:14.039Z,99.90
2019-03-21T08:57:42.464Z,99.90
2019-03-21T09:00:15.037Z,99.90
2019-03-21T09:02:43.471Z,99.90
2019-03-21T09:05:12.593Z,99.90
2019-03-21T09:07:41.030Z,99.90
2019-03-21T09:10:11.288Z,99.90
2019-03-21T09:12:42.363Z,99.90
2019-03-21T09:15:10.362Z,99.90
2019-03-21T09:17:38.811Z,99.90
2019-03-21T09:20:08.518Z,99.90
2019-03-21T09:22:37.017Z,99.90
2019-03-21T09:25:07.473Z,99.90
2019-03-21T09:27:35.919Z,99.90
2019-03-21T09:30:14.967Z,99.90
2019-03-21T09:32:43.423Z,99.90
2019-03-21T09:35:12.611Z,99.90
2019-03-21T09:37:41.083Z,99.90
2019-03-21T09:40:11.445Z,99.90
2019-03-21T09:42:39.892Z,99.90
2019-03-21T09:45:08.780Z,99.90
2019-03-21T09:47:37.229Z,99.90
2019-03-21T09:50:07.732Z,99.90
2019-03-21T09:52:36.170Z,99.90
2019-03-21T09:55:07.361Z,99.90
2019-03-21T09:57:35.927Z,99.90
2019-03-21T10:00:09.999Z,99.90
2019-03-21T10:02:38.450Z,99.90
2019-03-21T10:05:07.700Z,99.90
2019-03-21T10:07:36.128Z,99.90
2019-03-21T10:10:08.379Z,99.90
2019-03-21T10:12:36.870Z,99.90
2019-03-21T10:15:06.576Z,99.90
2019-03-21T10:17:35.325Z,99.90
2019-03-21T10:20:07.931Z,99.90
2019-03-21T10:22:36.383Z,99.90
2019-03-21T10:25:06.104Z,99.90
2019-03-21T10:27:35.299Z,99.90
2019-03-21T10:30:06.270Z,99.90
2019-03-21T10:32:35.301Z,99.90
2019-03-21T10:35:04.680Z,99.90
2019-03-21T10:37:33.133Z,99.90
2019-03-21T10:40:01.569Z,99.90
2019-03-21T10:42:30.026Z,99.90
2019-03-21T10:44:58.463Z,99.90
2019-03-21T10:47:26.935Z,99.90
2019-03-21T10:49:55.375Z,99.90
2019-03-21T10:52:23.842Z,99.90
2019-03-21T10:54:52.296Z,99.90
2019-03-21T10:57:20.731Z,99.90
2019-03-21T10:59:49.210Z,99.90
2019-03-21T11:02:17.679Z,99.90
2019-03-21T11:04:46.204Z,99.90
2019-03-21T11:07:13.583Z,99.90
2019-03-21T11:09:42.030Z,99.90
2019-03-21T11:12:10.495Z,99.90
2019-03-21T11:14:39.037Z,99.90
2019-03-21T11:17:07.544Z,99.90
2019-03-21T11:19:35.997Z,99.90
2019-03-21T11:22:06.670Z,99.90
2019-03-21T11:24:35.421Z,99.90
2019-03-21T11:27:03.874Z,99.90
2019-03-21T11:29:32.333Z,99.90
2019-03-21T11:32:00.765Z,99.90
2019-03-21T11:34:29.229Z,99.90
2019-03-21T11:36:57.667Z,99.90
2019-03-21T11:39:26.117Z,99.90
2019-03-21T11:41:54.575Z,99.90
2019-03-21T11:44:23.108Z,99.90
2019-03-21T11:46:51.596Z,99.90
2019-03-21T11:49:20.396Z,99.90
2019-03-21T11:51:48.900Z,99.90
2019-03-21T11:54:17.363Z,99.90
2019-03-21T11:56:45.815Z,99.90
2019-03-21T11:59:14.275Z,99.90
2019-03-21T12:01:42.719Z,99.90
2019-03-21T12:04:11.182Z,99.90
2019-03-21T12:06:39.631Z,99.90
2019-03-21T12:09:08.075Z,99.90
2019-03-21T12:11:36.524Z,99.90
2019-03-21T12:14:05.516Z,99.90
2019-03-21T12:16:33.971Z,99.90
2019-03-21T12:19:02.403Z,99.90
2019-03-21T12:21:30.892Z,99.90
2019-03-21T12:23:59.331Z,99.90
2019-03-21T12:26:27.798Z,99.90
2019-03-21T12:28:56.244Z,99.90
2019-03-21T12:31:24.759Z,99.90
2019-03-21T12:33:53.199Z,99.90
2019-03-21T12:36:21.672Z,99.90
2019-03-21T12:38:50.114Z,99.90
2019-03-21T12:41:18.767Z,99.90
2019-03-21T12:43:47.211Z,99.90
2019-03-21T12:46:15.657Z,99.90
2019-03-21T12:48:44.183Z,99.90
2019-03-21T12:51:12.944Z,99.90
2019-03-21T12:53:41.515Z,99.90
2019-03-21T12:56:09.965Z,99.90
2019-03-21T12:58:38.407Z,99.90
2019-03-21T13:01:06.916Z,99.90
2019-03-21T13:03:35.629Z,99.90
2019-03-21T13:06:04.166Z,99.90
2019-03-21T13:08:33.920Z,99.90
2019-03-21T13:11:02.803Z,99.90
2019-03-21T13:13:31.232Z,99.90
2019-03-21T13:15:59.689Z,99.90
2019-03-21T13:18:28.147Z,99.90
2019-03-21T13:20:56.591Z,99.90
2019-03-21T13:23:25.054Z,99.90
2019-03-21T13:25:53.548Z,99.90
2019-03-21T13:28:22.085Z,99.90
2019-03-21T13:30:50.541Z,99.90
2019-03-21T13:33:18.997Z,99.90
2019-03-21T13:35:47.509Z,99.90
2019-03-21T13:38:15.961Z,99.90
2019-03-21T13:40:44.475Z,99.90
2019-03-21T13:43:12.939Z,99.90
2019-03-21T13:45:41.412Z,99.90
2019-03-21T13:48:09.837Z,99.90
2019-03-21T13:50:38.300Z,99.90
2019-03-21T13:53:18.144Z,99.00
2019-03-21T13:55:36.945Z,99.00
2019-03-21T13:58:05.806Z,98.60
2019-03-21T14:00:34.347Z,97.90
2019-03-21T14:03:02.772Z,99.10
2019-03-21T14:05:31.264Z,99.30
2019-03-21T14:07:59.720Z,99.70
2019-03-21T14:10:28.243Z,99.90
2019-03-21T14:12:56.693Z,99.90
2019-03-21T14:15:25.161Z,99.90
2019-03-21T14:17:53.640Z,99.90
2019-03-21T14:20:22.069Z,99.90
2019-03-21T14:22:50.535Z,99.90
2019-03-21T14:25:18.977Z,99.90
2019-03-21T14:27:47.445Z,99.90
2019-03-21T14:30:17.742Z,99.90
2019-03-21T14:32:46.265Z,99.90
2019-03-21T14:35:14.803Z,99.90
2019-03-21T14:37:43.247Z,99.90
2019-03-21T14:40:13.884Z,99.90
2019-03-21T14:42:42.634Z,99.40
2019-03-21T14:45:15.790Z,99.40
2019-03-21T14:47:44.262Z,99.90
2019-03-21T14:50:14.738Z,99.90
2019-03-21T14:52:43.164Z,99.90
2019-03-21T14:55:13.572Z,99.90
2019-03-21T14:57:42.147Z,99.90
2019-03-21T15:00:13.544Z,99.90
2019-03-21T15:02:41.985Z,99.90
2019-03-21T15:05:10.750Z,99.90
2019-03-21T15:07:39.207Z,99.90
2019-03-21T15:10:10.389Z,99.90
2019-03-21T15:12:38.830Z,99.90
2019-03-21T15:15:09.232Z,99.90
2019-03-21T15:17:37.686Z,99.90
2019-03-21T15:20:08.733Z,99.90
2019-03-21T15:22:37.165Z,99.90
2019-03-21T15:25:07.864Z,99.90
2019-03-21T15:27:36.559Z,99.90
2019-03-21T15:30:12.004Z,99.90
2019-03-21T15:32:41.792Z,99.90
2019-03-21T15:35:11.997Z,99.90
2019-03-21T15:37:40.425Z,99.90
2019-03-21T15:40:11.831Z,99.90
2019-03-21T15:42:40.304Z,99.90
2019-03-21T15:45:22.121Z,99.90
2019-03-21T15:47:44.960Z,99.90
2019-03-21T15:50:27.514Z,99.90
2019-03-21T15:52:56.431Z,99.90
2019-03-21T15:55:24.863Z,99.90
2019-03-21T15:57:53.314Z,99.90
2019-03-21T16:00:41.341Z,99.90
2019-03-21T16:03:10.929Z,99.90
2019-03-21T16:05:39.505Z,99.90
2019-03-21T16:08:09.174Z,99.90
2019-03-21T16:10:37.936Z,99.90
2019-03-21T16:13:06.468Z,99.90
2019-03-21T16:15:35.078Z,99.90
2019-03-21T16:18:03.704Z,99.90
2019-03-21T16:20:32.188Z,99.90
2019-03-21T16:23:00.639Z,99.90
2019-03-21T16:25:29.077Z,99.90
2019-03-21T16:27:57.547Z,99.90
2019-03-21T16:30:25.980Z,99.90
2019-03-21T16:32:54.602Z,99.90
2019-03-21T16:35:23.037Z,99.90
2019-03-21T16:37:51.503Z,99.90
2019-03-21T16:40:19.991Z,99.90
2019-03-21T16:42:48.414Z,99.90
2019-03-21T16:45:16.885Z,99.90
2019-03-21T16:47:45.313Z,99.90
2019-03-21T16:50:16.737Z,99.90
2019-03-21T16:52:45.169Z,99.90
2019-03-21T16:55:14.579Z,99.90
2019-03-21T16:57:43.571Z,99.90
2019-03-21T17:00:18.027Z,99.90
2019-03-21T17:02:47.483Z,99.90
2019-03-21T17:05:15.958Z,99.90
2019-03-21T17:07:44.405Z,99.90
2019-03-21T17:10:17.088Z,99.90
2019-03-21T17:12:45.646Z,99.90
2019-03-21T17:15:14.256Z,99.90
2019-03-21T17:17:42.759Z,99.90
2019-03-21T17:20:12.292Z,99.90
2019-03-21T17:22:40.877Z,99.90
2019-03-21T17:25:09.959Z,99.90
2019-03-21T17:27:38.463Z,99.90
2019-03-21T17:30:09.939Z,99.90
2019-03-21T17:32:38.382Z,99.90
2019-03-21T17:35:07.006Z,99.90
2019-03-21T17:37:37.170Z,99.90
2019-03-21T17:40:08.930Z,99.90
2019-03-21T17:42:37.379Z,99.90
2019-03-21T17:45:18.371Z,99.90
2019-03-21T17:47:46.878Z,99.90
2019-03-21T17:50:17.742Z,99.90
2019-03-21T17:52:46.356Z,99.90
2019-03-21T17:55:14.878Z,99.90
2019-03-21T17:57:43.350Z,99.90
2019-03-21T18:00:14.876Z,99.90
2019-03-21T18:02:43.394Z,99.90
2019-03-21T18:05:13.485Z,99.90
2019-03-21T18:07:41.936Z,99.90
2019-03-21T18:10:16.200Z,99.90
2019-03-21T18:12:44.638Z,99.90
2019-03-21T18:15:13.103Z,99.90
2019-03-21T18:17:41.546Z,99.90
2019-03-21T18:20:10.196Z,99.90
2019-03-21T18:22:38.643Z,99.90
2019-03-21T18:25:07.179Z,99.90
2019-03-21T18:27:36.451Z,99.90
2019-03-21T18:30:07.420Z,99.90
2019-03-21T18:32:36.429Z,99.90
2019-03-21T18:35:07.337Z,99.90
2019-03-21T18:37:36.429Z,99.90
2019-03-21T18:40:06.580Z,99.90
2019-03-21T18:42:35.027Z,99.90
2019-03-21T18:45:04.631Z,99.90
2019-03-21T18:47:33.140Z,99.90
2019-03-21T18:50:01.596Z,99.90
2019-03-21T18:52:30.036Z,99.90
2019-03-21T18:55:06.104Z,99.90
2019-03-21T18:57:28.687Z,99.90
2019-03-21T18:59:57.141Z,99.90
2019-03-21T19:02:25.583Z,99.90
2019-03-21T19:04:54.080Z,99.90
2019-03-21T19:07:22.548Z,99.90
2019-03-21T19:09:51.023Z,99.90
2019-03-21T19:12:19.469Z,99.90
2019-03-21T19:14:48.114Z,99.90
2019-03-21T19:17:16.561Z,99.90
2019-03-21T19:19:45.089Z,99.90
2019-03-21T19:22:13.560Z,99.90
2019-03-21T19:24:42.126Z,99.90
2019-03-21T19:27:10.641Z,99.90
2019-03-21T19:29:39.134Z,99.90
2019-03-21T19:32:07.645Z,99.90
2019-03-21T19:34:36.597Z,99.90
2019-03-21T19:37:05.034Z,99.90
2019-03-21T19:39:33.489Z,99.90
2019-03-21T19:42:01.935Z,99.90
2019-03-21T19:44:30.403Z,99.90
2019-03-21T19:47:01.363Z,99.90
2019-03-21T19:49:29.025Z,99.90
2019-03-21T19:51:57.494Z,99.90
2019-03-21T19:54:25.960Z,99.90
2019-03-21T19:56:54.486Z,99.90
2019-03-21T19:59:22.941Z,99.90
2019-03-21T20:01:51.373Z,99.90
2019-03-21T20:04:19.818Z,99.90
2019-03-21T20:06:48.244Z,99.90
2019-03-21T20:09:16.723Z,99.90
2019-03-21T20:11:45.167Z,99.90
2019-03-21T20:14:13.656Z,99.90
2019-03-21T20:16:42.129Z,99.90
2019-03-21T20:19:10.573Z,99.90
2019-03-21T20:21:47.776Z,99.90
2019-03-21T20:24:09.196Z,99.90
2019-03-21T20:26:37.626Z,99.90
2019-03-21T20:29:06.719Z,99.90
2019-03-21T20:31:35.179Z,99.90
2019-03-21T20:34:03.640Z,99.90
2019-03-21T20:36:32.124Z,99.90
2019-03-21T20:39:00.572Z,99.90
2019-03-21T20:41:29.027Z,99.90
2019-03-21T20:43:57.467Z,99.90
2019-03-21T20:46:25.917Z,99.90
2019-03-21T20:48:53.351Z,99.90
2019-03-21T20:51:21.790Z,99.90
2019-03-21T20:53:50.256Z,99.90
2019-03-21T20:56:18.688Z,99.90
2019-03-21T20:58:47.257Z,99.90
2019-03-21T21:01:15.741Z,99.90
2019-03-21T21:03:44.169Z,99.90
2019-03-21T21:06:12.635Z,99.90
2019-03-21T21:08:41.065Z,99.90
2019-03-21T21:11:09.680Z,99.90
2019-03-21T21:13:38.126Z,99.90
2019-03-21T21:16:06.882Z,99.90
2019-03-21T21:18:35.406Z,99.90
2019-03-21T21:21:03.905Z,99.90
2019-03-21T21:23:32.332Z,99.90
2019-03-21T21:26:05.453Z,99.90
2019-03-21T21:28:30.941Z,99.90
2019-03-21T21:30:59.443Z,99.90
2019-03-21T21:33:27.872Z,99.90
2019-03-21T21:35:56.351Z,99.90
2019-03-21T21:38:24.779Z,99.90
2019-03-21T21:40:53.258Z,99.90
2019-03-21T21:43:23.205Z,99.90
2019-03-21T21:45:51.890Z,99.90
2019-03-21T21:48:20.481Z,99.90
2019-03-21T21:50:49.404Z,99.90
2019-03-21T21:53:18.010Z,99.90
2019-03-21T21:55:46.673Z,99.90
2019-03-21T21:58:15.423Z,99.90
2019-03-21T22:00:44.193Z,99.90
2019-03-21T22:03:12.941Z,99.90
2019-03-21T22:05:41.430Z,99.90
2019-03-21T22:08:09.893Z,99.90
2019-03-21T22:10:38.431Z,99.90
2019-03-21T22:13:06.933Z,99.90
2019-03-21T22:15:35.380Z,99.90
2019-03-21T22:18:03.829Z,99.90
2019-03-21T22:20:32.281Z,99.90
2019-03-21T22:23:00.726Z,99.90
2019-03-21T22:25:29.181Z,99.90
2019-03-21T22:27:57.686Z,99.90
2019-03-21T22:30:26.126Z,99.90
2019-03-21T22:32:54.569Z,99.90
2019-03-21T22:35:22.998Z,99.90
2019-03-21T22:37:51.452Z,99.90
2019-03-21T22:40:19.919Z,99.90
2019-03-21T22:42:48.537Z,99.90
2019-03-21T22:45:18.218Z,99.90
2019-03-21T22:47:46.908Z,99.90
2019-03-21T22:50:16.271Z,99.90
2019-03-21T22:52:45.465Z,99.90
2019-03-21T22:55:14.258Z,99.90
2019-03-21T22:57:42.935Z,99.90
2019-03-21T23:00:14.497Z,99.90
2019-03-21T23:02:42.947Z,99.90
2019-03-21T23:05:11.632Z,99.90
2019-03-21T23:07:40.095Z,99.90
2019-03-21T23:10:09.568Z,99.90
2019-03-21T23:12:38.065Z,99.90
2019-03-21T23:15:09.460Z,99.90
2019-03-21T23:17:38.672Z,99.90
2019-03-21T23:20:14.998Z,99.90
2019-03-21T23:22:43.702Z,99.90
2019-03-21T23:25:16.130Z,99.90
2019-03-21T23:27:43.723Z,99.90
2019-03-21T23:30:14.933Z,99.90
2019-03-21T23:32:43.486Z,99.90
2019-03-21T23:35:11.976Z,99.90
2019-03-21T23:37:40.448Z,99.90
2019-03-21T23:40:13.156Z,99.90
2019-03-21T23:42:41.664Z,99.90
2019-03-21T23:45:11.302Z,99.90
2019-03-21T23:47:39.779Z,99.90
2019-03-21T23:50:10.731Z,99.90
2019-03-21T23:52:39.290Z,99.90
2019-03-21T23:55:08.873Z,99.90
2019-03-21T23:57:37.447Z,99.90
